Aérodrome :
LOGIN :

S'inscrire | Disclaimer

   EN    FR    IT 

 










Légende :    VFR   VFR Marginal   IFR   IFR Intensif   IFR Très Intensif
Visi : 
Plafond : 
>= 8 km
>= 3000ft
5 à 8 km
1000 à 3000 ft
1500m à 5 km
500 à 1000 ft
800 à 1500m
200 à 500 ft
< 800m
< 200 ft
Symboles :   Orages  Brouillard  Fortes neiges  Fortes précipitations  Vent > 20 kt
SIGMETs :   Divers  Orages  Givrage  Turbulence  Onde Orograph.  Cendres Volcan.






- Altitude de l'aérodrome : 776 ft
- Code IATA : RMS


ETAR - Ramstein Air Base

DERNIER METAR :
  • 212356Z AUTO 24009KT 9999 CLR 05/01 A3035 RMK AO2 SLP288 T00510007 10060 20050 57010 FZRANO

METARs EXPIRÉS :
  • 212256Z AUTO 24009KT 9999 SCT190 06/01 A3036 RMK AO2 SLP292 T00550010 400830025 FZRANO
  • 212156Z AUTO 24012KT 9999 BKN190 06/01 A3037 RMK AO2 SLP296 T00590012 FZRANO $

TAF TAF ETAR
Valide du 21 à 20h jusqu'au 23 à 00h UTC


212006Z 2120/2224 24009KT SCT030 BKN120 QNH3036INS
BECMG 2202/2203 23010G20KT 9999 SCT020 510003 QNH3029INS
BECMG 2208/2209 24015G30KT 9999 FEW020 SCT120 520004 QNH3028INS
BECMG 2215/2216 24012G25KT 9999 BKN030 520004 QNH3028INS
BECMG 2220/2221 24012G25KT 9000 -SHRA BKN020 610809 520004 QNH3025INS
TEMPO 2222/2224 BKN010 TX12/2214Z TN02/2206Z



MET'MAP, la Météo Aéronautique d'un coup d'oeil ! - Copyright ORBIFLY Décembre 2007 - Disclaimer

ORBIFLY MET'MAP TEAM :

Programmation & Développement : Alexandra Zaïnal
Sur une idée originale de : Baudouin d'Aumeries
Assistance à la programmation : Marc-Olivier Méhu
Soutien technique & logistique : Manuel Goepfert

Contact : metmap@orbifly.com




SOURCES & CREDITS :

   NOAA